Terminal Aerodrome Forecast
Issued by NWS Portland, OR

Home | Current Version | Previous Version | Text Only | Print | Product List | Glossary On
Versions: 1 2 3 4 5 6 7 8 9 10 11 12 13 14 15 16 17 18 19 20 21 22 23 24 25 26 27 28 29 30 31
000
FTUS46 KPQR 120201 AAA
TAFSLE
TAF AMD
KSLE 120201Z 1202/1224 VRB04KT P6SM -SHRA BKN008 BKN070 OVC090
     FM120300 15003KT P6SM SCT050 OVC070
     FM121500 17007KT 5SM -RA BR OVC050
     FM122000 20009KT 4SM -SHRA BR OVC025=

USA.gov is the U.S. government's official web portal to all federal, state and local government web resources and services.